Terminal Aerodrome Forecast
Issued by NWS

Home | Current Version | Previous Version | Graphics & Text | Print | Product List | Glossary On
Versions: 1 2 3 4 5 6 7 8 9 10 11 12 13 14 15 16 17
210
FTUS43 KABR 141120
TAFPIR
TAF
KPIR 141120Z 1412/1512 08006KT P6SM FEW100 BKN120
     FM141500 07006KT P6SM -SHRA OVC035
     FM141600 05007KT 6SM -SHRA BR OVC025
     FM141800 34011KT 1 1/2SM SHRA BR OVC015
     FM142200 33018G27KT P6SM BKN020
     FM142300 33016G24KT P6SM BKN035
     FM150500 30009KT P6SM FEW200
     FM150900 26005KT P6SM FEW250=

USA.gov is the U.S. government's official web portal to all federal, state and local government web resources and services.